Time;durP1;ratioP1;P1;durP2;ratioP2;P2;SDS_P1;SDS_P2;PMS_P1;PMS_P2;Temp;Humidity;BMP_temperature;BMP_pressure;BME280_temperature;BME280_humidity;BME280_pressure;Samples;Min_cycle;Max_cycle;Signal;HPM_P1;HPM_P2
2023/12/09 00:01:05;;;;;;;39.83;26.73;;;;;;;5.12;95.29;100082.13;5017765;28;20729;-81
2023/12/09 00:03:31;;;;;;;17.57;15.70;;;;;;;5.13;93.93;100091.63;5018523;28;20248;-80
2023/12/09 00:05:58;;;;;;;19.30;14.60;;;;;;;5.10;94.19;100088.19;5018893;28;20228;-80
2023/12/09 00:08:24;;;;;;;17.43;15.13;;;;;;;5.09;94.58;100089.88;5018156;28;20615;-81
2023/12/09 00:10:51;;;;;;;18.87;15.27;;;;;;;4.83;95.25;100087.34;5017502;28;20234;-82
2023/12/09 00:13:17;;;;;;;18.27;15.00;;;;;;;4.87;96.27;100077.88;5017350;28;20203;-82
2023/12/09 00:15:43;;;;;;;27.27;18.90;;;;;;;4.84;97.42;100047.72;5017845;28;20236;-81
2023/12/09 00:18:11;;;;;;;37.27;27.33;;;;;;;4.93;97.73;100034.75;5017580;28;20216;-81
2023/12/09 00:20:37;;;;;;;28.40;22.00;;;;;;;4.96;98.22;100023.53;5009256;28;20217;-80
2023/12/09 00:23:04;;;;;;;27.67;17.93;;;;;;;5.04;97.36;100028.69;4997668;28;20240;-81
2023/12/09 00:25:30;;;;;;;26.40;19.03;;;;;;;4.98;97.49;100027.84;5007017;28;20232;-81
2023/12/09 00:27:56;;;;;;;18.20;16.33;;;;;;;4.93;98.26;100020.97;5017087;28;20713;-81
2023/12/09 00:30:22;;;;;;;19.83;16.17;;;;;;;5.05;97.93;100018.31;5016863;28;20212;-81
2023/12/09 00:32:49;;;;;;;20.27;18.03;;;;;;;5.10;97.53;100019.19;5016553;28;20225;-80
2023/12/09 00:35:17;;;;;;;18.73;16.80;;;;;;;5.08;97.25;100033.00;5017237;28;20247;-80
2023/12/09 00:37:43;;;;;;;22.67;15.70;;;;;;;4.99;96.25;100033.88;5017196;28;20270;-81
2023/12/09 00:40:10;;;;;;;21.30;16.23;;;;;;;5.02;97.07;100031.28;5017871;28;20668;-80
2023/12/09 00:42:36;;;;;;;18.67;14.97;;;;;;;5.08;95.51;100051.09;5017458;28;20207;-82
2023/12/09 00:45:03;;;;;;;19.30;16.63;;;;;;;5.13;95.64;100039.88;5017925;28;20241;-79
2023/12/09 00:47:29;;;;;;;22.07;17.23;;;;;;;5.12;96.13;100058.84;5018437;28;20211;-81
2023/12/09 00:49:56;;;;;;;19.10;17.20;;;;;;;5.24;95.66;100054.50;5015175;28;20233;-82
2023/12/09 00:52:23;;;;;;;19.07;14.53;;;;;;;5.06;94.72;100078.72;4997055;28;20228;-80
2023/12/09 00:54:50;;;;;;;15.33;13.93;;;;;;;5.15;94.80;100084.72;5009771;28;20227;-80
2023/12/09 00:57:16;;;;;;;15.80;13.37;;;;;;;5.06;94.16;100092.50;5015871;28;20223;-81
2023/12/09 00:59:42;;;;;;;16.17;14.57;;;;;;;5.03;94.60;100094.22;5017294;28;20267;-81
2023/12/09 01:02:09;;;;;;;16.50;14.73;;;;;;;5.06;95.44;100079.56;5017514;28;20217;-82
2023/12/09 01:04:35;;;;;;;17.33;13.83;;;;;;;5.09;94.60;100079.53;5017391;28;20287;-80
2023/12/09 01:07:01;;;;;;;15.80;14.10;;;;;;;5.07;94.79;100081.25;5017269;28;20631;-81
2023/12/09 01:09:29;;;;;;;15.00;13.57;;;;;;;5.04;94.49;100058.00;5017750;28;20209;-80
2023/12/09 01:11:55;;;;;;;15.83;14.00;;;;;;;5.08;94.20;100070.06;5016948;28;20266;-82
2023/12/09 01:14:22;;;;;;;14.23;12.93;;;;;;;5.04;95.26;100060.59;5016471;28;20286;-80
2023/12/09 01:16:48;;;;;;;15.77;14.27;;;;;;;5.12;95.42;100053.66;5017738;28;20263;-80
2023/12/09 01:19:14;;;;;;;15.93;13.07;;;;;;;5.13;94.68;100062.28;5018520;28;20203;-80
2023/12/09 01:21:42;;;;;;;15.53;13.93;;;;;;;5.12;94.49;100089.88;5000616;28;20208;-82
2023/12/09 01:24:08;;;;;;;15.13;13.50;;;;;;;5.10;94.39;100091.63;5012231;28;20238;-81
2023/12/09 01:26:36;;;;;;;14.30;12.97;;;;;;;5.09;94.26;100091.63;5017987;28;20267;-80
2023/12/09 01:29:03;;;;;;;18.17;12.57;;;;;;;5.14;94.08;100106.28;5017706;28;20209;-80
2023/12/09 01:31:29;;;;;;;20.23;13.33;;;;;;;5.26;93.95;100114.88;5017445;28;20211;-81
2023/12/09 01:33:56;;;;;;;17.40;13.43;;;;;;;5.34;93.96;100121.75;5017696;28;20322;-82
2023/12/09 01:36:22;;;;;;;15.07;12.43;;;;;;;5.30;93.21;100120.03;5016536;28;20219;-80
2023/12/09 01:38:49;;;;;;;14.47;12.67;;;;;;;5.28;93.70;100121.75;5017175;28;20258;-80
2023/12/09 01:41:15;;;;;;;14.33;11.77;;;;;;;5.32;92.54;100130.38;5017526;28;20208;-81
2023/12/09 01:43:47;;;;;;;13.10;11.87;;;;;;;5.22;91.38;100151.97;5016610;28;20691;-82
2023/12/09 01:46:15;;;;;;;13.93;11.97;;;;;;;5.07;92.02;100160.59;5016842;28;20672;-82
2023/12/09 01:48:41;;;;;;;12.23;10.87;;;;;;;5.07;92.95;100161.47;5018421;28;20238;-79
2023/12/09 01:51:09;;;;;;;12.60;11.23;;;;;;;5.15;93.08;100157.16;5005828;28;20217;-79
2023/12/09 01:53:36;;;;;;;12.27;11.07;;;;;;;5.02;93.15;100141.66;4998021;28;20580;-80
2023/12/09 01:56:05;;;;;;;13.23;11.33;;;;;;;4.98;95.92;100125.28;5016903;28;20211;-81
2023/12/09 01:58:34;;;;;;;16.43;12.07;;;;;;;4.86;96.71;100086.50;5014091;28;20251;-80
2023/12/09 02:01:01;;;;;;;12.97;11.67;;;;;;;5.09;96.39;100071.78;5017388;28;20208;-79
2023/12/09 02:03:28;;;;;;;15.23;11.60;;;;;;;5.06;95.95;100068.34;5016965;28;20207;-81
2023/12/09 02:05:54;;;;;;;12.87;11.57;;;;;;;5.24;95.43;100070.03;5017723;28;20279;-81
2023/12/09 02:08:20;;;;;;;12.70;10.73;;;;;;;5.15;94.35;100078.66;5016371;28;20213;-81
2023/12/09 02:10:52;;;;;;;11.53;10.53;;;;;;;4.97;96.65;100066.63;5016792;28;20895;-81
2023/12/09 02:13:24;;;;;;;12.13;10.93;;;;;;;5.14;96.26;100043.31;5015802;28;20275;-81
2023/12/09 02:15:58;;;;;;;14.20;11.27;;;;;;;5.24;96.09;100039.84;5016118;28;20235;-81
2023/12/09 02:18:27;;;;;;;11.67;10.13;;;;;;;5.13;95.23;100047.66;5016033;28;20212;-82
2023/12/09 02:20:53;;;;;;;13.33;9.80;;;;;;;5.18;94.92;100076.94;5005630;28;20213;-81
2023/12/09 02:23:21;;;;;;;12.73;10.67;;;;;;;5.26;95.94;100066.56;5003208;28;20259;-80
2023/12/09 02:25:51;;;;;;;12.67;11.17;;;;;;;5.35;96.09;100060.47;5015631;28;20232;-80
2023/12/09 02:28:20;;;;;;;10.93;9.93;;;;;;;5.27;95.52;100060.53;5016202;28;20209;-81
2023/12/09 02:30:55;;;;;;;11.03;10.03;;;;;;;5.39;95.01;100067.38;5016377;28;20215;-79
2023/12/09 02:33:22;;;;;;;11.60;10.40;;;;;;;5.32;94.42;100083.81;5016615;28;20231;-81
2023/12/09 02:35:51;;;;;;;11.27;10.07;;;;;;;5.39;94.21;100080.31;5017441;28;20224;-80
2023/12/09 02:38:19;;;;;;;10.13;9.00;;;;;;;5.29;93.85;100100.22;5016780;28;20212;-80
2023/12/09 02:40:48;;;;;;;12.63;10.53;;;;;;;5.16;94.38;100095.91;5016416;28;20212;-82
2023/12/09 02:43:15;;;;;;;11.13;9.30;;;;;;;5.17;93.99;100102.81;5015715;28;20254;-81
2023/12/09 02:45:41;;;;;;;13.37;9.97;;;;;;;5.17;93.85;100116.63;5016251;28;20302;-79
2023/12/09 02:48:07;;;;;;;11.00;9.87;;;;;;;5.18;94.31;100107.13;5017262;28;20950;-80
2023/12/09 02:50:36;;;;;;;9.97;9.00;;;;;;;5.16;95.73;100088.16;5009711;28;20270;-80
2023/12/09 02:53:02;;;;;;;10.07;9.17;;;;;;;5.37;95.81;100069.09;4995288;28;20225;-80
2023/12/09 02:55:29;;;;;;;10.53;9.47;;;;;;;5.41;94.87;100082.91;5017345;28;20677;-82
2023/12/09 02:57:56;;;;;;;11.57;9.00;;;;;;;5.43;94.35;100086.34;5018232;28;20241;-80
2023/12/09 03:00:22;;;;;;;11.13;9.90;;;;;;;5.38;94.63;100084.63;5021888;28;20694;-82
2023/12/09 03:02:49;;;;;;;11.83;9.97;;;;;;;5.41;95.37;100078.59;5021206;28;20208;-80
2023/12/09 03:05:15;;;;;;;10.23;9.23;;;;;;;5.42;95.68;100079.47;5022284;28;20308;-82
2023/12/09 03:07:41;;;;;;;9.90;8.77;;;;;;;5.56;95.52;100070.75;5022863;28;20216;-80
2023/12/09 03:10:08;;;;;;;10.43;8.93;;;;;;;5.69;94.83;100076.75;5023667;28;20631;-81
2023/12/09 03:12:34;;;;;;;12.50;9.83;;;;;;;5.78;93.93;100084.44;5022226;28;20230;-80
2023/12/09 03:15:05;;;;;;;9.83;8.90;;;;;;;5.78;93.82;100096.56;5022885;28;20288;-80
2023/12/09 03:17:31;;;;;;;10.13;8.57;;;;;;;5.79;92.74;100116.41;5023509;28;20856;-80
2023/12/09 03:19:58;;;;;;;8.67;7.87;;;;;;;5.85;92.64;100112.94;5020244;28;20755;-80
2023/12/09 03:22:24;;;;;;;8.40;7.70;;;;;;;5.75;92.03;100130.25;5004208;28;20278;-80
2023/12/09 03:24:50;;;;;;;9.07;8.27;;;;;;;5.71;92.66;100136.31;5014438;28;20228;-81
2023/12/09 03:27:16;;;;;;;8.50;7.70;;;;;;;5.81;92.04;100132.81;5023743;28;20274;-80
2023/12/09 03:29:43;;;;;;;7.90;7.17;;;;;;;5.78;91.88;100135.41;5023696;28;20760;-81
2023/12/09 03:32:10;;;;;;;8.50;7.47;;;;;;;5.70;91.06;100145.78;5023466;28;20239;-81
2023/12/09 03:34:37;;;;;;;8.63;7.90;;;;;;;5.72;90.77;100159.59;5023233;28;20231;-81
2023/12/09 03:37:03;;;;;;;8.03;7.27;;;;;;;5.73;90.88;100155.28;5021927;28;20218;-81
2023/12/09 03:39:30;;;;;;;8.07;7.27;;;;;;;5.69;91.58;100153.56;5022716;28;20239;-81
2023/12/09 03:41:56;;;;;;;9.13;8.13;;;;;;;5.62;92.17;100137.19;5023089;28;20628;-80
2023/12/09 03:44:22;;;;;;;9.53;8.57;;;;;;;5.72;92.11;100125.06;5022341;28;20223;-81
2023/12/09 03:46:49;;;;;;;8.70;7.17;;;;;;;5.77;91.69;100115.56;5021202;28;20656;-81
2023/12/09 03:49:16;;;;;;;8.33;7.50;;;;;;;5.73;91.44;100135.44;5021614;28;20216;-80
2023/12/09 03:51:42;;;;;;;7.40;6.70;;;;;;;5.59;90.49;100142.41;5004087;28;20212;-80
2023/12/09 03:54:09;;;;;;;7.37;6.67;;;;;;;5.62;91.03;100131.16;5014152;28;20231;-79
2023/12/09 03:56:35;;;;;;;7.17;6.47;;;;;;;5.64;90.69;100140.63;5016433;28;20626;-80
2023/12/09 03:59:01;;;;;;;7.60;6.30;;;;;;;5.51;90.45;100136.34;5004812;28;20207;-80
2023/12/09 04:01:28;;;;;;;7.83;7.13;;;;;;;5.48;91.73;100138.97;5020715;28;20233;-81
2023/12/09 04:03:55;;;;;;;8.47;7.70;;;;;;;5.50;91.66;100126.88;5023001;28;20236;-80
2023/12/09 04:06:22;;;;;;;8.37;6.97;;;;;;;5.57;92.43;100095.78;5019852;28;20209;-79
2023/12/09 04:08:48;;;;;;;8.40;6.93;;;;;;;5.54;92.69;100092.34;5020756;28;20269;-79
2023/12/09 04:11:15;;;;;;;7.60;6.87;;;;;;;5.48;92.23;100084.59;5020615;28;20208;-81
2023/12/09 04:13:41;;;;;;;8.13;7.33;;;;;;;5.46;93.21;100078.56;5019990;28;20819;-81
2023/12/09 04:16:08;;;;;;;7.63;6.67;;;;;;;5.43;93.52;100069.09;5020064;28;20266;-81
2023/12/09 04:18:36;;;;;;;9.37;7.40;;;;;;;5.39;94.71;100059.59;5020107;28;20223;-81
2023/12/09 04:21:02;;;;;;;8.70;7.53;;;;;;;5.48;95.07;100044.03;5008330;28;20240;-78
2023/12/09 04:23:30;;;;;;;11.23;8.00;;;;;;;5.55;96.03;100021.59;4999299;28;20215;-80
2023/12/09 04:25:56;;;;;;;8.03;7.30;;;;;;;5.70;95.08;100015.47;5018626;28;20228;-80
2023/12/09 04:28:23;;;;;;;7.97;7.17;;;;;;;5.76;94.11;100031.81;5018593;28;20271;-82
2023/12/09 04:30:49;;;;;;;9.47;6.47;;;;;;;5.77;93.54;100046.50;5019037;28;20686;-79
2023/12/09 04:33:15;;;;;;;7.60;6.80;;;;;;;5.71;92.66;100069.84;5018595;28;20236;-80
2023/12/09 04:35:41;;;;;;;11.43;7.20;;;;;;;5.74;91.16;100071.53;5018875;28;20231;-81
2023/12/09 04:38:08;;;;;;;7.63;6.77;;;;;;;5.66;92.57;100068.97;5018017;28;20211;-82
2023/12/09 04:40:35;;;;;;;8.57;6.87;;;;;;;5.68;93.67;100061.22;5019725;28;20226;-81
2023/12/09 04:43:02;;;;;;;8.27;7.47;;;;;;;5.79;93.27;100054.25;5019049;28;20212;-81
2023/12/09 04:45:28;;;;;;;9.97;7.40;;;;;;;5.77;95.24;100049.06;5019245;28;20228;-81
2023/12/09 04:47:54;;;;;;;9.20;8.30;;;;;;;5.82;95.17;100030.91;5016837;28;20817;-80
2023/12/09 04:50:21;;;;;;;8.17;7.07;;;;;;;5.97;94.39;100033.44;5012284;28;20212;-81
2023/12/09 04:52:47;;;;;;;7.93;7.13;;;;;;;5.91;93.66;100043.81;4998273;28;20593;-81
2023/12/09 04:55:14;;;;;;;7.03;6.33;;;;;;;5.91;92.28;100055.91;5017385;28;20358;-80
2023/12/09 04:57:41;;;;;;;7.73;6.83;;;;;;;5.86;91.44;100070.63;5011528;28;20216;-81
2023/12/09 05:00:10;;;;;;;8.67;7.03;;;;;;;5.68;92.74;100079.34;5002629;28;20243;-79
2023/12/09 05:02:37;;;;;;;6.93;6.17;;;;;;;5.69;92.89;100068.09;5016968;28;20246;-81
2023/12/09 05:05:04;;;;;;;8.93;7.00;;;;;;;5.74;93.50;100063.78;5017874;28;20231;-81
2023/12/09 05:07:31;;;;;;;7.57;6.87;;;;;;;5.69;94.13;100049.97;5018391;28;20207;-80
2023/12/09 05:09:57;;;;;;;8.37;7.20;;;;;;;5.81;94.59;100025.75;5017287;28;20859;-81
2023/12/09 05:12:23;;;;;;;10.73;7.03;;;;;;;5.84;94.08;100025.72;5017656;28;20359;-80
2023/12/09 05:14:51;;;;;;;12.80;6.73;;;;;;;5.91;93.99;100032.59;5017105;28;20277;-81
2023/12/09 05:17:17;;;;;;;6.60;6.00;;;;;;;5.91;92.87;100046.41;5016632;28;20223;-79
2023/12/09 05:19:44;;;;;;;6.73;5.90;;;;;;;5.91;93.46;100043.81;5016282;28;20261;-80
2023/12/09 05:22:12;;;;;;;6.83;5.97;;;;;;;5.96;92.90;100044.66;4996993;28;20212;-80
2023/12/09 05:24:38;;;;;;;6.97;5.13;;;;;;;5.94;92.78;100043.78;5013388;28;20232;-81
2023/12/09 05:27:05;;;;;;;6.17;5.57;;;;;;;5.98;93.85;100036.88;5016654;28;20220;-81
2023/12/09 05:29:31;;;;;;;7.00;5.20;;;;;;;5.99;93.02;100041.22;5017665;28;20208;-81
2023/12/09 05:31:59;;;;;;;9.63;5.97;;;;;;;6.02;92.66;100042.91;5016172;28;20241;-81
2023/12/09 05:34:25;;;;;;;6.97;5.37;;;;;;;5.99;91.87;100048.13;5017299;28;20231;-81
2023/12/09 05:36:51;;;;;;;6.87;5.23;;;;;;;5.95;91.87;100049.88;5017275;28;20205;-81
2023/12/09 05:39:18;;;;;;;10.57;5.77;;;;;;;6.04;91.81;100051.53;5018027;28;20609;-81
2023/12/09 05:41:44;;;;;;;5.47;4.90;;;;;;;5.99;92.07;100054.16;5017524;28;20205;-81
2023/12/09 05:44:10;;;;;;;5.57;5.07;;;;;;;6.02;92.54;100046.34;5016783;28;20282;-81
2023/12/09 05:46:36;;;;;;;7.00;4.80;;;;;;;5.94;92.21;100033.41;5018143;28;20203;-80
2023/12/09 05:49:04;;;;;;;6.43;5.73;;;;;;;5.89;93.27;100030.03;5018575;28;20215;-81
2023/12/09 05:51:30;;;;;;;6.87;4.90;;;;;;;6.07;92.91;100033.41;5002877;28;20201;-81
2023/12/09 05:53:57;;;;;;;6.40;5.20;;;;;;;6.06;92.71;100042.88;5008835;28;20224;-79
2023/12/09 05:56:23;;;;;;;7.87;6.13;;;;;;;6.15;91.88;100045.41;5017553;28;20578;-79
2023/12/09 05:58:49;;;;;;;6.07;4.90;;;;;;;6.13;91.31;100067.88;5012957;28;20206;-81
2023/12/09 06:01:16;;;;;;;6.03;4.80;;;;;;;6.07;91.10;100082.63;5018741;28;20215;-81
2023/12/09 06:03:43;;;;;;;5.60;5.10;;;;;;;6.11;91.65;100087.75;5018985;28;20201;-79
2023/12/09 06:06:11;;;;;;;6.33;5.20;;;;;;;5.93;90.28;100114.63;5017619;28;20635;-81
2023/12/09 06:08:37;;;;;;;7.47;5.97;;;;;;;5.98;90.81;100114.59;5019589;28;20208;-80
2023/12/09 06:11:03;;;;;;;6.80;6.00;;;;;;;5.98;90.51;100117.19;5018979;28;20687;-80
2023/12/09 06:13:31;;;;;;;8.60;6.07;;;;;;;5.93;90.56;100101.66;5018188;28;20281;-79
2023/12/09 06:15:58;;;;;;;6.63;5.83;;;;;;;5.81;91.30;100088.78;5018683;28;20291;-80
2023/12/09 06:18:24;;;;;;;7.03;5.43;;;;;;;5.78;90.67;100100.00;5019031;28;20210;-81
2023/12/09 06:20:50;;;;;;;6.30;5.80;;;;;;;5.77;91.28;100102.63;5009587;28;20240;-80
2023/12/09 06:23:18;;;;;;;4.63;4.23;;;;;;;5.65;90.22;100095.75;5002748;28;20219;-80
2023/12/09 06:25:44;;;;;;;6.07;5.27;;;;;;;5.79;90.37;100100.88;5018685;28;20221;-80
2023/12/09 06:28:10;;;;;;;7.13;6.17;;;;;;;5.85;90.81;100102.59;5017519;28;20200;-81
2023/12/09 06:30:37;;;;;;;8.30;5.93;;;;;;;5.80;91.13;100097.41;5016082;28;20259;-79
2023/12/09 06:33:03;;;;;;;8.00;5.77;;;;;;;5.86;91.20;100087.00;5015612;28;20633;-79
2023/12/09 06:35:29;;;;;;;9.43;6.67;;;;;;;5.88;91.13;100084.41;5016128;28;20232;-81
2023/12/09 06:37:56;;;;;;;6.50;5.90;;;;;;;5.69;92.09;100079.34;5015886;28;20213;-81
2023/12/09 06:40:24;;;;;;;6.50;5.87;;;;;;;5.86;92.33;100071.47;5017378;28;20634;-81
2023/12/09 06:42:50;;;;;;;9.43;5.93;;;;;;;5.82;90.01;100080.13;5017370;28;20211;-81
2023/12/09 06:45:17;;;;;;;8.23;5.43;;;;;;;5.69;89.86;100106.94;5017896;28;20223;-79
2023/12/09 06:47:43;;;;;;;7.60;5.57;;;;;;;5.78;90.02;100109.50;5017616;28;20201;-79
2023/12/09 06:50:10;;;;;;;8.23;5.60;;;;;;;5.67;89.63;100121.63;5014075;28;20211;-80
2023/12/09 06:52:36;;;;;;;8.30;6.07;;;;;;;5.74;90.11;100121.59;4998358;28;20212;-79
2023/12/09 06:55:03;;;;;;;6.73;5.93;;;;;;;5.54;91.17;100110.47;5017137;28;20334;-80
2023/12/09 06:57:31;;;;;;;6.73;6.07;;;;;;;5.58;91.36;100089.72;5009954;28;20228;-80
2023/12/09 06:59:57;;;;;;;8.17;5.90;;;;;;;5.66;91.01;100076.75;5018783;28;20242;-82
2023/12/09 07:02:23;;;;;;;6.33;5.73;;;;;;;5.80;90.50;100081.88;5017478;28;20215;-82
2023/12/09 07:04:50;;;;;;;7.20;6.03;;;;;;;5.79;90.82;100095.69;5018388;28;20290;-81
2023/12/09 07:07:16;;;;;;;7.30;6.60;;;;;;;5.86;90.49;100096.50;5002413;28;20213;-79
2023/12/09 07:09:43;;;;;;;8.30;6.07;;;;;;;5.86;90.60;100112.91;5018751;28;20258;-80
2023/12/09 07:12:09;;;;;;;8.20;6.47;;;;;;;5.78;90.33;100117.28;5016046;28;20207;-79
2023/12/09 07:14:37;;;;;;;6.93;6.20;;;;;;;5.80;90.30;100112.09;5011918;28;20289;-80
2023/12/09 07:17:03;;;;;;;6.90;6.20;;;;;;;5.64;90.71;100125.09;5017244;28;20757;-81
2023/12/09 07:19:29;;;;;;;7.60;6.07;;;;;;;5.57;90.00;100119.09;5018901;28;20206;-81
2023/12/09 07:21:56;;;;;;;7.03;5.50;;;;;;;5.46;90.64;100120.84;4998459;28;20208;-81
2023/12/09 07:24:22;;;;;;;6.63;5.33;;;;;;;5.53;89.66;100121.69;5010982;28;20247;-82
2023/12/09 07:26:48;;;;;;;5.70;5.17;;;;;;;5.50;88.44;100137.22;5017195;28;20210;-80
2023/12/09 07:29:16;;;;;;;7.40;5.30;;;;;;;5.41;88.09;100150.19;5017097;28;20295;-79
2023/12/09 07:31:43;;;;;;;6.73;6.10;;;;;;;5.35;89.00;100151.94;5015931;28;20269;-79
2023/12/09 07:34:16;;;;;;;5.90;5.40;;;;;;;5.36;89.48;100135.53;5016393;28;20230;-82
2023/12/09 07:36:42;;;;;;;6.60;5.93;;;;;;;5.35;88.75;100136.41;5015803;28;20208;-81
2023/12/09 07:39:09;;;;;;;5.77;5.27;;;;;;;5.31;88.80;100129.53;5016141;28;20216;-81
2023/12/09 07:41:36;;;;;;;8.20;6.17;;;;;;;5.32;88.66;100131.25;5018773;28;20270;-80
2023/12/09 07:44:03;;;;;;;9.63;6.23;;;;;;;5.25;88.76;100124.38;5019031;28;20225;-81
2023/12/09 07:46:30;;;;;;;6.10;5.50;;;;;;;5.20;89.48;100107.13;5019995;28;20204;-81
2023/12/09 07:48:57;;;;;;;6.67;5.97;;;;;;;5.20;89.84;100089.03;5020164;28;20203;-82
2023/12/09 07:51:24;;;;;;;6.93;5.50;;;;;;;5.12;90.20;100087.31;5004323;28;20729;-81
2023/12/09 07:53:50;;;;;;;6.60;6.10;;;;;;;5.18;89.67;100079.53;5007126;28;20986;-80
2023/12/09 07:56:16;;;;;;;6.83;6.23;;;;;;;5.15;90.06;100065.72;5019564;28;20210;-79
2023/12/09 07:58:42;;;;;;;6.43;5.83;;;;;;;5.23;89.96;100063.97;5010080;28;20233;-80
2023/12/09 08:01:09;;;;;;;7.13;5.77;;;;;;;5.18;89.96;100060.56;5019652;28;20215;-78
2023/12/09 08:03:36;;;;;;;6.07;5.30;;;;;;;5.05;89.63;100064.88;5019515;28;20275;-79
2023/12/09 08:06:04;;;;;;;7.63;5.90;;;;;;;5.16;90.33;100050.22;5019775;28;20292;-78
2023/12/09 08:08:30;;;;;;;8.73;6.03;;;;;;;5.15;90.52;100052.78;5019711;28;20798;-81
2023/12/09 08:10:58;;;;;;;6.80;5.87;;;;;;;5.09;90.26;100058.84;5020364;28;20608;-80
2023/12/09 08:13:25;;;;;;;6.70;6.10;;;;;;;5.06;90.78;100039.91;5018039;28;20211;-80
2023/12/09 08:15:51;;;;;;;7.63;6.83;;;;;;;5.06;92.42;100016.63;5018459;28;20763;-81
2023/12/09 08:18:17;;;;;;;7.33;6.70;;;;;;;5.10;93.31;99989.88;5020241;28;20211;-79
2023/12/09 08:20:43;;;;;;;8.00;6.53;;;;;;;5.15;93.93;99962.25;5011079;28;20224;-81
2023/12/09 08:23:11;;;;;;;8.73;7.23;;;;;;;5.01;95.53;99931.25;4999089;28;20205;-80
2023/12/09 08:25:38;;;;;;;7.87;6.40;;;;;;;5.16;95.82;99905.31;5015695;28;20246;-81
2023/12/09 08:28:05;;;;;;;7.57;6.77;;;;;;;5.31;95.62;99900.91;5015015;28;20211;-81
2023/12/09 08:30:32;;;;;;;7.30;6.60;;;;;;;5.35;95.38;99900.03;5015217;28;20235;-80
2023/12/09 08:32:58;;;;;;;7.37;6.67;;;;;;;5.39;95.11;99906.91;5017959;28;20199;-81
2023/12/09 08:35:25;;;;;;;9.23;6.80;;;;;;;5.35;96.04;99900.03;5017469;28;20286;-81
2023/12/09 08:37:51;;;;;;;7.40;6.60;;;;;;;5.47;95.86;99894.78;5018310;28;20208;-80
2023/12/09 08:40:19;;;;;;;8.97;6.50;;;;;;;5.50;97.46;99870.59;5017883;28;20242;-81
2023/12/09 08:42:46;;;;;;;8.07;6.57;;;;;;;5.53;96.11;99862.81;5015769;28;20200;-82
2023/12/09 08:45:15;;;;;;;8.73;6.63;;;;;;;5.52;96.13;99882.66;5015639;28;20232;-80
2023/12/09 08:47:42;;;;;;;9.20;7.33;;;;;;;5.64;96.59;99875.69;5015870;28;20211;-81
2023/12/09 08:50:08;;;;;;;10.20;6.00;;;;;;;5.66;95.65;99885.16;4998089;28;20303;-81
2023/12/09 08:52:35;;;;;;;6.90;6.30;;;;;;;5.60;95.44;99889.53;4995061;28;20589;-82
2023/12/09 08:55:02;;;;;;;8.83;7.40;;;;;;;5.49;96.41;99887.88;4999514;28;20277;-82
2023/12/09 08:57:32;;;;;;;7.43;6.33;;;;;;;5.47;96.75;99878.38;5003103;28;20258;-80
2023/12/09 08:59:59;;;;;;;7.20;5.90;;;;;;;5.43;95.21;99884.47;5014829;28;20237;-80
2023/12/09 09:02:26;;;;;;;6.20;5.60;;;;;;;5.40;94.62;99900.88;4998422;28;20265;-79
2023/12/09 09:04:53;;;;;;;10.13;7.47;;;;;;;5.05;96.30;99894.16;5015829;28;20301;-80
2023/12/09 09:07:19;;;;;;;8.27;6.77;;;;;;;5.14;96.40;99877.75;5015115;28;20217;-81
2023/12/09 09:09:45;;;;;;;8.13;6.07;;;;;;;5.10;96.84;99871.72;5014415;28;20810;-81
2023/12/09 09:12:12;;;;;;;11.40;6.90;;;;;;;5.03;98.47;99856.25;5013015;28;20272;-82
2023/12/09 09:14:39;;;;;;;8.67;7.43;;;;;;;5.07;99.84;99817.41;5012243;28;20284;-80
2023/12/09 09:17:06;;;;;;;7.97;7.17;;;;;;;5.09;99.83;99812.25;5013173;28;20656;-82
2023/12/09 09:19:32;;;;;;;8.73;7.33;;;;;;;5.33;100.00;99793.06;5013343;28;20203;-81
2023/12/09 09:21:58;;;;;;;11.37;7.67;;;;;;;5.29;99.90;99804.31;5010017;28;20955;-81
2023/12/09 09:24:24;;;;;;;8.13;7.23;;;;;;;5.34;98.73;99807.75;5013474;28;20232;-81
2023/12/09 09:26:50;;;;;;;11.47;7.37;;;;;;;5.40;100.00;99801.69;5013841;28;20208;-82
2023/12/09 09:29:17;;;;;;;9.40;8.03;;;;;;;5.55;99.53;99817.09;5014244;28;20285;-82
2023/12/09 09:31:45;;;;;;;7.80;7.10;;;;;;;5.61;98.85;99810.97;5013154;28;20206;-82
2023/12/09 09:34:12;;;;;;;8.53;7.63;;;;;;;5.66;99.21;99810.06;5013840;28;20226;-82
2023/12/09 09:36:39;;;;;;;8.97;7.27;;;;;;;5.81;98.51;99813.38;5013136;28;20330;-82
2023/12/09 09:39:06;;;;;;;8.97;7.70;;;;;;;5.96;98.06;99828.81;5014240;28;20215;-81
2023/12/09 09:41:45;;;;;;;8.83;7.60;;;;;;;5.93;97.29;99836.59;5014091;28;20207;-80
2023/12/09 09:44:15;;;;;;;9.33;6.77;;;;;;;6.14;96.80;99846.78;5015705;28;20239;-82
2023/12/09 09:46:42;;;;;;;8.17;7.37;;;;;;;5.89;96.40;99863.41;5013717;28;20294;-82
2023/12/09 09:49:13;;;;;;;9.50;8.60;;;;;;;6.25;96.40;99856.16;5013532;28;20200;-82
2023/12/09 09:51:45;;;;;;;9.93;7.47;;;;;;;6.21;96.68;99862.25;5005337;28;20224;-80
2023/12/09 09:54:17;;;;;;;7.80;7.10;;;;;;;6.32;95.57;99871.63;5010887;28;20236;-81
2023/12/09 09:56:44;;;;;;;6.07;5.57;;;;;;;6.43;94.77;99868.91;5006608;28;20228;-82
2023/12/09 09:59:12;;;;;;;7.17;5.40;;;;;;;6.36;94.42;99886.28;5008240;28;20581;-82
2023/12/09 10:01:39;;;;;;;5.60;5.07;;;;;;;6.52;94.14;99889.56;5012360;28;20213;-80
2023/12/09 10:04:05;;;;;;;6.20;5.60;;;;;;;6.54;93.78;99899.88;5011086;28;20231;-81
2023/12/09 10:06:35;;;;;;;5.90;5.33;;;;;;;6.51;93.98;99877.44;5012454;28;20204;-82
2023/12/09 10:09:02;;;;;;;5.67;5.07;;;;;;;6.64;93.45;99877.31;5013227;28;20203;-82
2023/12/09 10:11:29;;;;;;;5.10;4.70;;;;;;;6.48;93.49;99879.22;5004023;28;20266;-81
2023/12/09 10:13:55;;;;;;;5.57;4.90;;;;;;;6.42;94.03;99882.75;5012601;28;20244;-81
2023/12/09 10:16:22;;;;;;;8.37;6.10;;;;;;;6.37;94.33;99866.38;5012729;28;20240;-82
2023/12/09 10:18:48;;;;;;;9.10;5.33;;;;;;;6.36;95.06;99841.31;5012714;28;20196;-82
2023/12/09 10:21:15;;;;;;;5.43;4.93;;;;;;;6.40;95.81;99837.81;5008579;28;20215;-81
2023/12/09 10:23:45;;;;;;;8.10;5.73;;;;;;;6.48;95.38;99828.25;5012300;28;20207;-80
2023/12/09 10:26:14;;;;;;;7.70;5.23;;;;;;;6.58;95.37;99836.78;5012025;28;20269;-82
2023/12/09 10:28:41;;;;;;;6.13;5.53;;;;;;;6.59;94.48;99837.63;5007336;28;20704;-80
2023/12/09 10:31:08;;;;;;;6.90;6.10;;;;;;;6.61;94.25;99841.91;5008210;28;20748;-82
2023/12/09 10:33:35;;;;;;;6.40;5.33;;;;;;;6.71;94.51;99842.66;5004676;28;20209;-81
2023/12/09 10:36:02;;;;;;;6.13;5.60;;;;;;;6.50;95.04;99833.38;5012022;28;20283;-79
2023/12/09 10:38:28;;;;;;;6.87;5.40;;;;;;;6.52;96.36;99804.00;5013240;28;20204;-81
2023/12/09 10:40:57;;;;;;;6.20;5.13;;;;;;;6.76;95.06;99801.97;5012844;28;20218;-82
2023/12/09 10:43:24;;;;;;;6.20;5.60;;;;;;;6.94;94.01;99803.44;5011828;28;20203;-82
2023/12/09 10:45:50;;;;;;;6.40;5.80;;;;;;;7.01;93.01;99806.78;5011905;28;20223;-80
2023/12/09 10:48:17;;;;;;;6.43;5.83;;;;;;;7.12;93.28;99817.88;5011473;28;20212;-80
2023/12/09 10:50:46;;;;;;;6.80;6.10;;;;;;;7.19;93.14;99829.00;5003268;28;20220;-81
2023/12/09 10:53:12;;;;;;;6.63;5.50;;;;;;;7.23;92.91;99833.28;5001549;28;20217;-80
2023/12/09 10:55:39;;;;;;;7.00;5.80;;;;;;;7.15;91.90;99831.66;5011599;28;20231;-81
2023/12/09 10:58:07;;;;;;;6.80;6.20;;;;;;;7.23;92.66;99831.53;4999370;28;20220;-82
2023/12/09 11:00:36;;;;;;;7.83;5.97;;;;;;;7.29;91.32;99836.63;4996506;28;20609;-82
2023/12/09 11:03:03;;;;;;;7.90;5.67;;;;;;;7.22;91.38;99842.81;5011753;28;20578;-82
2023/12/09 11:05:33;;;;;;;7.07;5.87;;;;;;;7.12;91.50;99851.63;5012037;28;20224;-81
2023/12/09 11:08:00;;;;;;;6.40;5.80;;;;;;;7.26;91.29;99831.50;5012739;28;20205;-82
2023/12/09 11:10:27;;;;;;;10.80;7.47;;;;;;;7.22;91.37;99834.16;5012097;28;20690;-82
2023/12/09 11:12:53;;;;;;;6.37;5.77;;;;;;;7.18;91.16;99835.09;5011738;28;20266;-81
2023/12/09 11:15:29;;;;;;;6.63;5.27;;;;;;;7.33;91.55;99822.75;5012198;28;20797;-82
2023/12/09 11:17:55;;;;;;;7.63;6.27;;;;;;;7.38;91.31;99811.44;5015884;28;20207;-82
2023/12/09 11:20:21;;;;;;;5.80;5.30;;;;;;;7.50;90.35;99819.88;5009652;28;20283;-82
2023/12/09 11:22:48;;;;;;;6.67;5.67;;;;;;;7.53;89.37;99827.63;5009798;28;20203;-82
2023/12/09 11:25:22;;;;;;;6.00;5.47;;;;;;;7.48;89.24;99828.56;5008037;28;20227;-81
2023/12/09 11:27:50;;;;;;;6.03;5.43;;;;;;;7.26;89.59;99828.91;5015894;28;20212;-82
2023/12/09 11:30:30;;;;;;;6.70;5.20;;;;;;;7.40;89.48;99818.31;5015919;28;20609;-83